sensor_id;sensor_type;location;lat;lon;timestamp;pressure;altitude;pressure_sealevel;temperature;humidity
57763;BME280;43592;42.524;12.052;2022-12-01T00:02:21;96511.31;;;3.06;100.00
57763;BME280;43592;42.524;12.052;2022-12-01T00:04:47;96497.28;;;3.05;100.00
57763;BME280;43592;42.524;12.052;2022-12-01T00:07:13;96502.28;;;3.07;100.00
57763;BME280;43592;42.524;12.052;2022-12-01T00:09:38;96507.28;;;3.08;100.00
57763;BME280;43592;42.524;12.052;2022-12-01T00:12:22;96506.03;;;3.06;100.00
57763;BME280;43592;42.524;12.052;2022-12-01T00:14:48;96507.88;;;3.05;100.00
57763;BME280;43592;42.524;12.052;2022-12-01T00:17:19;96500.75;;;3.06;100.00
57763;BME280;43592;42.524;12.052;2022-12-01T00:19:45;96505.44;;;3.09;100.00
57763;BME280;43592;42.524;12.052;2022-12-01T00:22:10;96505.72;;;3.07;100.00
57763;BME280;43592;42.524;12.052;2022-12-01T00:24:36;96506.50;;;3.08;100.00
57763;BME280;43592;42.524;12.052;2022-12-01T00:27:01;96506.22;;;3.09;100.00
57763;BME280;43592;42.524;12.052;2022-12-01T00:29:27;96508.56;;;3.11;100.00
57763;BME280;43592;42.524;12.052;2022-12-01T00:31:52;96504.25;;;3.15;100.00
57763;BME280;43592;42.524;12.052;2022-12-01T00:34:22;96500.53;;;3.16;100.00
57763;BME280;43592;42.524;12.052;2022-12-01T00:36:48;96505.03;;;3.15;100.00
57763;BME280;43592;42.524;12.052;2022-12-01T00:39:13;96506.13;;;3.14;100.00
57763;BME280;43592;42.524;12.052;2022-12-01T00:41:39;96509.56;;;3.15;100.00
57763;BME280;43592;42.524;12.052;2022-12-01T00:44:04;96504.25;;;3.15;100.00
57763;BME280;43592;42.524;12.052;2022-12-01T00:46:30;96517.47;;;3.15;100.00
57763;BME280;43592;42.524;12.052;2022-12-01T00:48:56;96510.59;;;3.14;100.00
57763;BME280;43592;42.524;12.052;2022-12-01T00:51:21;96507.97;;;3.14;100.00
57763;BME280;43592;42.524;12.052;2022-12-01T00:53:47;96510.41;;;3.10;100.00
57763;BME280;43592;42.524;12.052;2022-12-01T00:56:12;96512.56;;;3.08;100.00
57763;BME280;43592;42.524;12.052;2022-12-01T00:58:39;96511.00;;;3.07;100.00
57763;BME280;43592;42.524;12.052;2022-12-01T01:01:04;96515.78;;;3.05;100.00
57763;BME280;43592;42.524;12.052;2022-12-01T01:03:31;96518.75;;;3.04;100.00
57763;BME280;43592;42.524;12.052;2022-12-01T01:06:01;96517.75;;;3.00;100.00
57763;BME280;43592;42.524;12.052;2022-12-01T01:08:27;96518.34;;;2.97;100.00
57763;BME280;43592;42.524;12.052;2022-12-01T01:10:52;96520.00;;;2.92;100.00
57763;BME280;43592;42.524;12.052;2022-12-01T01:13:18;96514.03;;;2.87;100.00
57763;BME280;43592;42.524;12.052;2022-12-01T01:15:43;96520.69;;;2.84;100.00
57763;BME280;43592;42.524;12.052;2022-12-01T01:18:09;96509.59;;;2.82;100.00
57763;BME280;43592;42.524;12.052;2022-12-01T01:20:35;96508.06;;;2.81;100.00
57763;BME280;43592;42.524;12.052;2022-12-01T01:23:01;96503.84;;;2.80;100.00
57763;BME280;43592;42.524;12.052;2022-12-01T01:25:27;96510.38;;;2.83;100.00
57763;BME280;43592;42.524;12.052;2022-12-01T01:27:52;96512.25;;;2.82;100.00
57763;BME280;43592;42.524;12.052;2022-12-01T01:30:18;96510.69;;;2.81;100.00
57763;BME280;43592;42.524;12.052;2022-12-01T01:32:43;96512.56;;;2.81;100.00
57763;BME280;43592;42.524;12.052;2022-12-01T01:35:09;96511.66;;;2.85;100.00
57763;BME280;43592;42.524;12.052;2022-12-01T01:37:34;96515.31;;;2.89;100.00
57763;BME280;43592;42.524;12.052;2022-12-01T01:40:00;96506.59;;;2.89;100.00
57763;BME280;43592;42.524;12.052;2022-12-01T01:42:25;96498.88;;;2.92;100.00
57763;BME280;43592;42.524;12.052;2022-12-01T01:44:54;96500.72;;;2.92;100.00
57763;BME280;43592;42.524;12.052;2022-12-01T01:47:24;96508.16;;;2.90;100.00
57763;BME280;43592;42.524;12.052;2022-12-01T01:49:51;96508.94;;;2.90;100.00
57763;BME280;43592;42.524;12.052;2022-12-01T01:52:17;96509.44;;;2.92;100.00
57763;BME280;43592;42.524;12.052;2022-12-01T01:54:44;96503.56;;;2.96;100.00
57763;BME280;43592;42.524;12.052;2022-12-01T01:57:12;96498.78;;;2.98;100.00
57763;BME280;43592;42.524;12.052;2022-12-01T01:59:42;96503.47;;;3.01;100.00
57763;BME280;43592;42.524;12.052;2022-12-01T02:02:10;96512.69;;;3.03;100.00
57763;BME280;43592;42.524;12.052;2022-12-01T02:04:44;96500.53;;;3.02;100.00
57763;BME280;43592;42.524;12.052;2022-12-01T02:07:11;96504.75;;;3.03;100.00
57763;BME280;43592;42.524;12.052;2022-12-01T02:09:37;96504.75;;;3.03;100.00
57763;BME280;43592;42.524;12.052;2022-12-01T02:23:11;96499.66;;;3.07;100.00
57763;BME280;43592;42.524;12.052;2022-12-01T02:25:57;96497.50;;;3.09;100.00
57763;BME280;43592;42.524;12.052;2022-12-01T02:33:57;96511.59;;;3.04;100.00
57763;BME280;43592;42.524;12.052;2022-12-01T02:39:01;96506.03;;;3.06;100.00
57763;BME280;43592;42.524;12.052;2022-12-01T02:41:38;96506.03;;;3.06;100.00
57763;BME280;43592;42.524;12.052;2022-12-01T02:44:10;96504.75;;;3.03;100.00
57763;BME280;43592;42.524;12.052;2022-12-01T02:46:42;96511.41;;;3.01;100.00
57763;BME280;43592;42.524;12.052;2022-12-01T02:49:14;96505.63;;;2.99;100.00
57763;BME280;43592;42.524;12.052;2022-12-01T02:51:40;96500.91;;;2.96;100.00
57763;BME280;43592;42.524;12.052;2022-12-01T02:54:09;96500.13;;;2.95;100.00
57763;BME280;43592;42.524;12.052;2022-12-01T02:56:36;96492.50;;;2.93;100.00
57763;BME280;43592;42.524;12.052;2022-12-01T02:59:04;96488.78;;;2.95;100.00
57763;BME280;43592;42.524;12.052;2022-12-01T03:04:06;96484.47;;;2.99;100.00
57763;BME280;43592;42.524;12.052;2022-12-01T03:12:03;96474.78;;;3.08;100.00
57763;BME280;43592;42.524;12.052;2022-12-01T03:14:38;96478.78;;;3.05;100.00
57763;BME280;43592;42.524;12.052;2022-12-01T03:17:07;96485.66;;;3.06;100.00
57763;BME280;43592;42.524;12.052;2022-12-01T03:22:46;96481.16;;;3.07;100.00
57763;BME280;43592;42.524;12.052;2022-12-01T03:25:13;96491.72;;;3.07;100.00
57763;BME280;43592;42.524;12.052;2022-12-01T03:27:40;96485.34;;;3.08;100.00
57763;BME280;43592;42.524;12.052;2022-12-01T03:30:07;96492.22;;;3.09;100.00
57763;BME280;43592;42.524;12.052;2022-12-01T03:32:48;96488.50;;;3.10;100.00
57763;BME280;43592;42.524;12.052;2022-12-01T03:35:23;96488.97;;;3.12;100.00
57763;BME280;43592;42.524;12.052;2022-12-01T03:40:17;96485.84;;;3.10;100.00
57763;BME280;43592;42.524;12.052;2022-12-01T03:42:50;96477.91;;;3.10;100.00
57763;BME280;43592;42.524;12.052;2022-12-01T03:45:18;96492.09;;;3.14;100.00
57763;BME280;43592;42.524;12.052;2022-12-01T03:47:47;96491.31;;;3.13;100.00
57763;BME280;43592;42.524;12.052;2022-12-01T03:50:13;96490.25;;;3.14;100.00
57763;BME280;43592;42.524;12.052;2022-12-01T03:57:45;96495.53;;;3.14;100.00
57763;BME280;43592;42.524;12.052;2022-12-01T04:00:15;96500.03;;;3.14;100.00
57763;BME280;43592;42.524;12.052;2022-12-01T04:02:41;96492.41;;;3.12;100.00
57763;BME280;43592;42.524;12.052;2022-12-01T04:05:09;96494.28;;;3.12;100.00
57763;BME280;43592;42.524;12.052;2022-12-01T04:07:35;96501.72;;;3.10;100.00
57763;BME280;43592;42.524;12.052;2022-12-01T04:10:01;96494.56;;;3.10;100.00
57763;BME280;43592;42.524;12.052;2022-12-01T04:12:26;96494.88;;;3.09;100.00
57763;BME280;43592;42.524;12.052;2022-12-01T04:14:58;96490.63;;;3.08;100.00
57763;BME280;43592;42.524;12.052;2022-12-01T04:17:24;96489.56;;;3.09;100.00
57763;BME280;43592;42.524;12.052;2022-12-01T04:19:50;96491.13;;;3.10;100.00
57763;BME280;43592;42.524;12.052;2022-12-01T04:22:15;96495.06;;;3.12;100.00
57763;BME280;43592;42.524;12.052;2022-12-01T04:24:41;96492.09;;;3.14;100.00
57763;BME280;43592;42.524;12.052;2022-12-01T04:27:06;96489.44;;;3.14;100.00
57763;BME280;43592;42.524;12.052;2022-12-01T04:29:32;96484.97;;;3.14;100.00
57763;BME280;43592;42.524;12.052;2022-12-01T04:31:57;96485.25;;;3.13;100.00
57763;BME280;43592;42.524;12.052;2022-12-01T04:34:23;96490.63;;;3.08;100.00
57763;BME280;43592;42.524;12.052;2022-12-01T04:36:48;96493.59;;;3.06;100.00
57763;BME280;43592;42.524;12.052;2022-12-01T04:39:14;96491.72;;;3.07;100.00
57763;BME280;43592;42.524;12.052;2022-12-01T04:41:39;96494.66;;;3.05;100.00
57763;BME280;43592;42.524;12.052;2022-12-01T04:44:05;96492.81;;;3.06;100.00
57763;BME280;43592;42.524;12.052;2022-12-01T04:46:30;96492.31;;;3.04;100.00
57763;BME280;43592;42.524;12.052;2022-12-01T04:48:56;96496.81;;;3.03;100.00
57763;BME280;43592;42.524;12.052;2022-12-01T04:51:21;96492.59;;;3.02;100.00
57763;BME280;43592;42.524;12.052;2022-12-01T04:53:50;96498.66;;;3.03;100.00
57763;BME280;43592;42.524;12.052;2022-12-01T04:56:16;96495.22;;;3.02;100.00
57763;BME280;43592;42.524;12.052;2022-12-01T04:58:42;96492.91;;;3.01;100.00
57763;BME280;43592;42.524;12.052;2022-12-01T05:01:08;96484.97;;;3.01;100.00
57763;BME280;43592;42.524;12.052;2022-12-01T05:03:35;96488.38;;;3.01;100.00
57763;BME280;43592;42.524;12.052;2022-12-01T05:06:02;96494.44;;;3.02;100.00
57763;BME280;43592;42.524;12.052;2022-12-01T05:08:27;96497.09;;;3.02;100.00
57763;BME280;43592;42.524;12.052;2022-12-01T05:10:56;96499.94;;;3.05;100.00
57763;BME280;43592;42.524;12.052;2022-12-01T05:13:21;96497.00;;;3.07;100.00
57763;BME280;43592;42.524;12.052;2022-12-01T05:15:47;96490.16;;;3.06;100.00
57763;BME280;43592;42.524;12.052;2022-12-01T05:18:12;96484.56;;;3.07;100.00
57763;BME280;43592;42.524;12.052;2022-12-01T05:20:38;96489.84;;;3.07;100.00
57763;BME280;43592;42.524;12.052;2022-12-01T05:23:25;96490.44;;;3.04;100.00
57763;BME280;43592;42.524;12.052;2022-12-01T05:25:51;96493.38;;;3.03;100.00
57763;BME280;43592;42.524;12.052;2022-12-01T05:28:16;96500.53;;;3.02;100.00
57763;BME280;43592;42.524;12.052;2022-12-01T05:30:42;96494.94;;;3.04;100.00
57763;BME280;43592;42.524;12.052;2022-12-01T05:33:07;96494.19;;;3.03;100.00
57763;BME280;43592;42.524;12.052;2022-12-01T05:35:33;96505.03;;;3.02;100.00
57763;BME280;43592;42.524;12.052;2022-12-01T05:37:58;96494.75;;;3.00;100.00
57763;BME280;43592;42.524;12.052;2022-12-01T05:40:24;96491.31;;;3.00;100.00
57763;BME280;43592;42.524;12.052;2022-12-01T05:42:50;96493.50;;;2.98;100.00
57763;BME280;43592;42.524;12.052;2022-12-01T05:45:15;96502.78;;;2.95;100.00
57763;BME280;43592;42.524;12.052;2022-12-01T05:47:40;96498.88;;;2.92;100.00
57763;BME280;43592;42.524;12.052;2022-12-01T05:50:06;96499.91;;;2.91;100.00
57763;BME280;43592;42.524;12.052;2022-12-01T05:52:32;96499.63;;;2.93;100.00
57763;BME280;43592;42.524;12.052;2022-12-01T05:54:59;96508.34;;;2.93;100.00
57763;BME280;43592;42.524;12.052;2022-12-01T05:57:24;96500.41;;;2.93;100.00
57763;BME280;43592;42.524;12.052;2022-12-01T05:59:50;96508.34;;;2.93;100.00
57763;BME280;43592;42.524;12.052;2022-12-01T06:02:15;96501.50;;;2.92;100.00
57763;BME280;43592;42.524;12.052;2022-12-01T06:04:41;96503.84;;;2.94;100.00
57763;BME280;43592;42.524;12.052;2022-12-01T06:07:07;96498.78;;;2.98;100.00
57763;BME280;43592;42.524;12.052;2022-12-01T06:09:32;96501.31;;;3.03;100.00
57763;BME280;43592;42.524;12.052;2022-12-01T06:11:58;96499.16;;;3.05;100.00
57763;BME280;43592;42.524;12.052;2022-12-01T06:14:23;96506.50;;;3.08;100.00
57763;BME280;43592;42.524;12.052;2022-12-01T06:16:49;96509.06;;;3.13;100.00
57763;BME280;43592;42.524;12.052;2022-12-01T06:19:14;96511.88;;;3.17;100.00
57763;BME280;43592;42.524;12.052;2022-12-01T06:21:40;96511.59;;;3.18;100.00
57763;BME280;43592;42.524;12.052;2022-12-01T06:24:05;96515.81;;;3.19;100.00
57763;BME280;43592;42.524;12.052;2022-12-01T06:26:33;96520.81;;;3.21;100.00
57763;BME280;43592;42.524;12.052;2022-12-01T06:28:59;96518.94;;;3.21;100.00
57763;BME280;43592;42.524;12.052;2022-12-01T06:31:24;96515.72;;;3.24;100.00
57763;BME280;43592;42.524;12.052;2022-12-01T06:33:49;96528.34;;;3.27;100.00
57763;BME280;43592;42.524;12.052;2022-12-01T06:36:15;96531.00;;;3.27;100.00
57763;BME280;43592;42.524;12.052;2022-12-01T06:38:40;96527.25;;;3.28;100.00
57763;BME280;43592;42.524;12.052;2022-12-01T06:41:06;96530.41;;;3.30;100.00
57763;BME280;43592;42.524;12.052;2022-12-01T06:43:34;96529.81;;;3.33;100.00
57763;BME280;43592;42.524;12.052;2022-12-01T06:46:01;96534.03;;;3.34;100.00
57763;BME280;43592;42.524;12.052;2022-12-01T06:48:27;96530.31;;;3.35;100.00
57763;BME280;43592;42.524;12.052;2022-12-01T06:50:55;96542.25;;;3.33;100.00
57763;BME280;43592;42.524;12.052;2022-12-01T06:53:20;96541.47;;;3.32;100.00
57763;BME280;43592;42.524;12.052;2022-12-01T06:55:46;96542.56;;;3.31;100.00
57763;BME280;43592;42.524;12.052;2022-12-01T06:58:11;96540.09;;;3.35;100.00
57763;BME280;43592;42.524;12.052;2022-12-01T07:00:38;96540.31;;;3.38;100.00
57763;BME280;43592;42.524;12.052;2022-12-01T07:03:03;96547.84;;;3.45;100.00
57763;BME280;43592;42.524;12.052;2022-12-01T07:05:29;96535.28;;;3.51;100.00
57763;BME280;43592;42.524;12.052;2022-12-01T07:07:54;96545.00;;;3.55;100.00
57763;BME280;43592;42.524;12.052;2022-12-01T07:10:20;96543.34;;;3.59;100.00
57763;BME280;43592;42.524;12.052;2022-12-01T07:12:45;96549.59;;;3.64;100.00
57763;BME280;43592;42.524;12.052;2022-12-01T07:15:11;96538.59;;;3.70;100.00
57763;BME280;43592;42.524;12.052;2022-12-01T07:17:36;96548.81;;;3.77;100.00
57763;BME280;43592;42.524;12.052;2022-12-01T07:20:02;96558.47;;;3.81;100.00
57763;BME280;43592;42.524;12.052;2022-12-01T07:22:28;96552.00;;;3.88;100.00
57763;BME280;43592;42.524;12.052;2022-12-01T07:24:53;96552.28;;;4.00;100.00
57763;BME280;43592;42.524;12.052;2022-12-01T07:27:19;96556.63;;;4.18;100.00
57763;BME280;43592;42.524;12.052;2022-12-01T07:29:44;96558.41;;;4.45;100.00
57763;BME280;43592;42.524;12.052;2022-12-01T07:32:10;96556.91;;;4.76;98.80
57763;BME280;43592;42.524;12.052;2022-12-01T07:34:35;96553.91;;;5.00;96.37
57763;BME280;43592;42.524;12.052;2022-12-01T07:37:01;96557.41;;;5.17;94.91
57763;BME280;43592;42.524;12.052;2022-12-01T07:39:26;96568.56;;;5.37;93.76
57763;BME280;43592;42.524;12.052;2022-12-01T07:41:52;96561.47;;;5.55;95.79
57763;BME280;43592;42.524;12.052;2022-12-01T07:44:17;96570.53;;;5.71;92.94
57763;BME280;43592;42.524;12.052;2022-12-01T07:46:43;96561.69;;;5.84;93.56
57763;BME280;43592;42.524;12.052;2022-12-01T07:49:08;96573.41;;;5.92;91.18
57763;BME280;43592;42.524;12.052;2022-12-01T07:51:36;96566.75;;;6.03;92.63
57763;BME280;43592;42.524;12.052;2022-12-01T07:54:02;96571.28;;;6.12;90.31
57763;BME280;43592;42.524;12.052;2022-12-01T07:56:28;96570.97;;;6.22;95.36
57763;BME280;43592;42.524;12.052;2022-12-01T07:58:54;96573.81;;;6.34;92.68
57763;BME280;43592;42.524;12.052;2022-12-01T08:01:20;96572.69;;;6.44;92.29
57763;BME280;43592;42.524;12.052;2022-12-01T08:03:56;96568.63;;;6.46;92.88
57763;BME280;43592;42.524;12.052;2022-12-01T08:06:22;96575.50;;;6.56;93.90
57763;BME280;43592;42.524;12.052;2022-12-01T08:08:48;96580.53;;;6.58;91.75
57763;BME280;43592;42.524;12.052;2022-12-01T08:11:15;96568.31;;;6.65;91.70
57763;BME280;43592;42.524;12.052;2022-12-01T08:13:40;96575.19;;;6.75;91.76
57763;BME280;43592;42.524;12.052;2022-12-01T08:16:07;96583.00;;;6.80;91.26
57763;BME280;43592;42.524;12.052;2022-12-01T08:18:36;96575.31;;;6.87;91.19
57763;BME280;43592;42.524;12.052;2022-12-01T08:21:02;96572.97;;;6.94;90.05
57763;BME280;43592;42.524;12.052;2022-12-01T08:23:27;96574.84;;;6.94;88.05
57763;BME280;43592;42.524;12.052;2022-12-01T08:25:53;96574.66;;;7.08;91.28
57763;BME280;43592;42.524;12.052;2022-12-01T08:28:18;96581.50;;;7.17;91.58
57763;BME280;43592;42.524;12.052;2022-12-01T08:30:44;96573.34;;;7.23;90.01
57763;BME280;43592;42.524;12.052;2022-12-01T08:33:10;96573.31;;;7.31;90.63
57763;BME280;43592;42.524;12.052;2022-12-01T08:35:36;96579.56;;;7.35;87.36
57763;BME280;43592;42.524;12.052;2022-12-01T08:38:01;96575.78;;;7.45;90.51
57763;BME280;43592;42.524;12.052;2022-12-01T08:40:27;96577.78;;;7.48;85.08
57763;BME280;43592;42.524;12.052;2022-12-01T08:42:52;96584.81;;;7.53;84.32
57763;BME280;43592;42.524;12.052;2022-12-01T08:45:18;96587.13;;;7.63;86.97
57763;BME280;43592;42.524;12.052;2022-12-01T08:47:44;96592.53;;;7.75;88.38
57763;BME280;43592;42.524;12.052;2022-12-01T08:50:10;96579.97;;;7.84;85.24
57763;BME280;43592;42.524;12.052;2022-12-01T08:52:35;96586.06;;;7.85;85.20
57763;BME280;43592;42.524;12.052;2022-12-01T08:55:01;96586.16;;;7.97;90.08
57763;BME280;43592;42.524;12.052;2022-12-01T08:57:30;96588.09;;;8.09;89.42
57763;BME280;43592;42.524;12.052;2022-12-01T08:59:55;96588.69;;;8.15;84.42
57763;BME280;43592;42.524;12.052;2022-12-01T09:02:21;96593.53;;;8.21;83.80
57763;BME280;43592;42.524;12.052;2022-12-01T09:04:46;96599.88;;;8.29;82.87
57763;BME280;43592;42.524;12.052;2022-12-01T09:07:14;96600.31;;;8.40;85.46
57763;BME280;43592;42.524;12.052;2022-12-01T09:09:40;96603.25;;;8.47;82.93
57763;BME280;43592;42.524;12.052;2022-12-01T09:12:06;96603.97;;;8.56;85.87
57763;BME280;43592;42.524;12.052;2022-12-01T09:14:35;96603.56;;;8.66;87.08
57763;BME280;43592;42.524;12.052;2022-12-01T09:17:02;96610.38;;;8.76;89.08
57763;BME280;43592;42.524;12.052;2022-12-01T09:19:27;96607.25;;;8.95;89.01
57763;BME280;43592;42.524;12.052;2022-12-01T09:21:53;96601.94;;;9.07;85.39
57763;BME280;43592;42.524;12.052;2022-12-01T09:24:19;96598.16;;;9.08;81.04
57763;BME280;43592;42.524;12.052;2022-12-01T09:26:44;96609.19;;;9.19;86.02
57763;BME280;43592;42.524;12.052;2022-12-01T09:29:11;96610.31;;;9.18;80.65
57763;BME280;43592;42.524;12.052;2022-12-01T09:31:37;96615.06;;;9.12;80.68
57763;BME280;43592;42.524;12.052;2022-12-01T09:34:06;96610.19;;;9.14;80.62
57763;BME280;43592;42.524;12.052;2022-12-01T09:36:32;96611.09;;;9.18;81.47
57763;BME280;43592;42.524;12.052;2022-12-01T09:38:58;96612.13;;;9.26;84.17
57763;BME280;43592;42.524;12.052;2022-12-01T09:41:30;96616.34;;;9.39;82.42
57763;BME280;43592;42.524;12.052;2022-12-01T09:44:01;96619.25;;;9.47;81.22
57763;BME280;43592;42.524;12.052;2022-12-01T09:46:36;96617.38;;;9.59;84.35
57763;BME280;43592;42.524;12.052;2022-12-01T09:49:07;96620.06;;;9.72;82.39
57763;BME280;43592;42.524;12.052;2022-12-01T09:51:36;96610.38;;;9.79;82.99
57763;BME280;43592;42.524;12.052;2022-12-01T09:54:02;96622.44;;;9.85;78.69
57763;BME280;43592;42.524;12.052;2022-12-01T09:56:31;96613.41;;;9.78;74.76
57763;BME280;43592;42.524;12.052;2022-12-01T09:58:59;96608.25;;;9.85;79.33
57763;BME280;43592;42.524;12.052;2022-12-01T10:01:29;96611.16;;;9.92;77.58
57763;BME280;43592;42.524;12.052;2022-12-01T10:03:58;96605.91;;;9.96;77.35
57763;BME280;43592;42.524;12.052;2022-12-01T10:06:30;96600.44;;;10.04;84.05
57763;BME280;43592;42.524;12.052;2022-12-01T10:11:34;96599.78;;;10.07;80.30
57763;BME280;43592;42.524;12.052;2022-12-01T10:14:00;96596.22;;;10.03;78.61
57763;BME280;43592;42.524;12.052;2022-12-01T10:16:29;96597.47;;;9.94;78.32
57763;BME280;43592;42.524;12.052;2022-12-01T10:18:59;96596.13;;;9.87;78.95
57763;BME280;43592;42.524;12.052;2022-12-01T10:35:04;96590.09;;;10.15;80.05
57763;BME280;43592;42.524;12.052;2022-12-01T10:37:29;96585.28;;;10.21;76.43
57763;BME280;43592;42.524;12.052;2022-12-01T10:39:55;96591.75;;;10.32;77.09
57763;BME280;43592;42.524;12.052;2022-12-01T10:45:01;96587.72;;;10.38;80.96
57763;BME280;43592;42.524;12.052;2022-12-01T10:47:27;96583.81;;;10.36;73.16
57763;BME280;43592;42.524;12.052;2022-12-01T10:49:53;96577.69;;;10.35;79.38
57763;BME280;43592;42.524;12.052;2022-12-01T10:54:53;96583.59;;;10.41;77.93
57763;BME280;43592;42.524;12.052;2022-12-01T10:57:18;96577.56;;;10.44;76.21
57763;BME280;43592;42.524;12.052;2022-12-01T10:59:49;96575.59;;;10.28;74.28
57763;BME280;43592;42.524;12.052;2022-12-01T11:02:19;96579.06;;;10.29;76.53
57763;BME280;43592;42.524;12.052;2022-12-01T11:04:59;96578.38;;;10.20;79.77
57763;BME280;43592;42.524;12.052;2022-12-01T11:07:40;96573.25;;;10.15;78.71
57763;BME280;43592;42.524;12.052;2022-12-01T11:12:42;96574.53;;;10.05;80.96
57763;BME280;43592;42.524;12.052;2022-12-01T11:15:22;96573.50;;;9.97;77.92
57763;BME280;43592;42.524;12.052;2022-12-01T11:17:48;96572.63;;;9.93;81.05
57763;BME280;43592;42.524;12.052;2022-12-01T11:20:34;96570.50;;;9.86;84.88
57763;BME280;43592;42.524;12.052;2022-12-01T11:25:34;96567.50;;;10.00;85.15
57763;BME280;43592;42.524;12.052;2022-12-01T11:28:00;96568.84;;;9.94;84.50
57763;BME280;43592;42.524;12.052;2022-12-01T11:30:28;96574.72;;;9.87;83.17
57763;BME280;43592;42.524;12.052;2022-12-01T11:32:55;96565.75;;;9.80;82.54
57763;BME280;43592;42.524;12.052;2022-12-01T11:35:23;96559.72;;;9.71;82.11
57763;BME280;43592;42.524;12.052;2022-12-01T11:37:53;96562.63;;;9.65;84.77
57763;BME280;43592;42.524;12.052;2022-12-01T11:40:21;96571.06;;;9.55;82.34
57763;BME280;43592;42.524;12.052;2022-12-01T11:42:49;96563.50;;;9.45;81.02
57763;BME280;43592;42.524;12.052;2022-12-01T11:50:32;96562.56;;;9.04;83.21
57763;BME280;43592;42.524;12.052;2022-12-01T11:52:58;96567.41;;;8.90;81.95
57763;BME280;43592;42.524;12.052;2022-12-01T11:55:24;96566.06;;;8.84;83.97
57763;BME280;43592;42.524;12.052;2022-12-01T11:57:54;96559.38;;;8.77;83.94
57763;BME280;43592;42.524;12.052;2022-12-01T12:00:24;96554.66;;;8.74;83.96
57763;BME280;43592;42.524;12.052;2022-12-01T12:05:26;96553.47;;;8.72;82.04
57763;BME280;43592;42.524;12.052;2022-12-01T12:15:25;96557.09;;;8.67;81.36
57763;BME280;43592;42.524;12.052;2022-12-01T12:20:37;96551.97;;;8.62;80.50
57763;BME280;43592;42.524;12.052;2022-12-01T12:31:15;96551.28;;;8.53;80.81
57763;BME280;43592;42.524;12.052;2022-12-01T12:36:37;96551.66;;;8.43;83.55
57763;BME280;43592;42.524;12.052;2022-12-01T12:41:39;96544.31;;;8.40;85.00
57763;BME280;43592;42.524;12.052;2022-12-01T12:47:09;96549.66;;;8.40;85.23
57763;BME280;43592;42.524;12.052;2022-12-01T12:49:44;96544.63;;;8.38;86.12
57763;BME280;43592;42.524;12.052;2022-12-01T12:59:59;96553.44;;;8.39;85.93
57763;BME280;43592;42.524;12.052;2022-12-01T13:05:06;96545.44;;;8.39;86.21
57763;BME280;43592;42.524;12.052;2022-12-01T13:07:55;96548.09;;;8.39;87.46
57763;BME280;43592;42.524;12.052;2022-12-01T13:10:21;96544.63;;;8.38;86.65
57763;BME280;43592;42.524;12.052;2022-12-01T13:12:54;96544.63;;;8.38;81.94
57763;BME280;43592;42.524;12.052;2022-12-01T13:15:20;96539.75;;;8.40;84.95
57763;BME280;43592;42.524;12.052;2022-12-01T13:17:50;96542.78;;;8.39;82.08
57763;BME280;43592;42.524;12.052;2022-12-01T13:20:18;96543.84;;;8.38;83.65
57763;BME280;43592;42.524;12.052;2022-12-01T13:22:45;96538.38;;;8.34;81.95
57763;BME280;43592;42.524;12.052;2022-12-01T13:25:12;96537.59;;;8.33;83.86
57763;BME280;43592;42.524;12.052;2022-12-01T13:27:39;96538.38;;;8.34;85.62
57763;BME280;43592;42.524;12.052;2022-12-01T13:30:15;96542.63;;;8.35;85.46
57763;BME280;43592;42.524;12.052;2022-12-01T13:32:41;96536.16;;;8.36;84.68
57763;BME280;43592;42.524;12.052;2022-12-01T13:35:20;96537.13;;;8.31;84.60
57763;BME280;43592;42.524;12.052;2022-12-01T13:37:47;96538.13;;;8.27;85.27
57763;BME280;43592;42.524;12.052;2022-12-01T13:40:20;96541.88;;;8.26;84.69
57763;BME280;43592;42.524;12.052;2022-12-01T13:42:57;96540.00;;;8.26;84.41
57763;BME280;43592;42.524;12.052;2022-12-01T13:45:24;96542.03;;;8.29;84.63
57763;BME280;43592;42.524;12.052;2022-12-01T13:47:52;96541.22;;;8.29;85.11
57763;BME280;43592;42.524;12.052;2022-12-01T13:55:59;96539.03;;;8.31;84.85
57763;BME280;43592;42.524;12.052;2022-12-01T13:58:39;96545.78;;;8.28;86.33
57763;BME280;43592;42.524;12.052;2022-12-01T14:01:40;96544.56;;;8.26;84.77
57763;BME280;43592;42.524;12.052;2022-12-01T14:06:36;96547.56;;;8.24;86.65
57763;BME280;43592;42.524;12.052;2022-12-01T14:09:06;96540.34;;;8.25;86.50
57763;BME280;43592;42.524;12.052;2022-12-01T14:11:37;96540.22;;;8.21;88.37
57763;BME280;43592;42.524;12.052;2022-12-01T14:14:11;96546.63;;;8.20;89.24
57763;BME280;43592;42.524;12.052;2022-12-01T14:16:45;96543.53;;;8.18;86.81
57763;BME280;43592;42.524;12.052;2022-12-01T14:19:33;96538.50;;;8.17;89.08
57763;BME280;43592;42.524;12.052;2022-12-01T14:21:57;96542.16;;;8.12;90.46
57763;BME280;43592;42.524;12.052;2022-12-01T14:24:32;96542.78;;;8.09;88.70
57763;BME280;43592;42.524;12.052;2022-12-01T14:26:59;96548.13;;;8.09;90.74
57763;BME280;43592;42.524;12.052;2022-12-01T14:34:16;96523.91;;;8.02;93.47
57763;BME280;43592;42.524;12.052;2022-12-01T14:40:15;96538.38;;;7.92;94.24
57763;BME280;43592;42.524;12.052;2022-12-01T14:42:31;96534.03;;;7.87;95.08
57763;BME280;43592;42.524;12.052;2022-12-01T14:45:19;96532.91;;;7.88;94.43
57763;BME280;43592;42.524;12.052;2022-12-01T14:47:50;96529.47;;;7.88;94.56
57763;BME280;43592;42.524;12.052;2022-12-01T14:50:24;96538.25;;;7.88;94.69
57763;BME280;43592;42.524;12.052;2022-12-01T14:52:57;96529.78;;;7.86;93.85
57763;BME280;43592;42.524;12.052;2022-12-01T14:55:27;96538.25;;;7.88;93.64
57763;BME280;43592;42.524;12.052;2022-12-01T14:58:55;96535.91;;;7.87;93.34
57763;BME280;43592;42.524;12.052;2022-12-01T15:01:00;96533.09;;;7.83;94.81
57763;BME280;43592;42.524;12.052;2022-12-01T15:03:27;96544.41;;;7.80;94.46
57763;BME280;43592;42.524;12.052;2022-12-01T15:05:56;96545.69;;;7.74;95.54